sensor_id;sensor_type;location;lat;lon;timestamp;P1;durP1;ratioP1;P2;durP2;ratioP2
6422;SDS011;3244;42.708;23.288;2023-03-23T00:02:11;52.67;;;31.08;;
6422;SDS011;3244;42.708;23.288;2023-03-23T00:04:38;39.38;;;25.88;;
6422;SDS011;3244;42.708;23.288;2023-03-23T00:07:06;39.00;;;26.75;;
6422;SDS011;3244;42.708;23.288;2023-03-23T00:09:33;35.28;;;25.35;;
6422;SDS011;3244;42.708;23.288;2023-03-23T00:12:06;41.15;;;26.60;;
6422;SDS011;3244;42.708;23.288;2023-03-23T00:14:33;37.67;;;25.80;;
6422;SDS011;3244;42.708;23.288;2023-03-23T00:17:06;38.17;;;26.27;;
6422;SDS011;3244;42.708;23.288;2023-03-23T00:19:35;32.78;;;23.73;;
6422;SDS011;3244;42.708;23.288;2023-03-23T00:22:11;36.55;;;24.25;;
6422;SDS011;3244;42.708;23.288;2023-03-23T00:24:39;33.70;;;23.27;;
6422;SDS011;3244;42.708;23.288;2023-03-23T00:27:05;37.85;;;23.95;;
6422;SDS011;3244;42.708;23.288;2023-03-23T00:29:33;36.97;;;22.15;;
6422;SDS011;3244;42.708;23.288;2023-03-23T00:32:00;34.45;;;23.55;;
6422;SDS011;3244;42.708;23.288;2023-03-23T00:34:27;41.38;;;22.80;;
6422;SDS011;3244;42.708;23.288;2023-03-23T00:36:57;31.90;;;22.42;;
6422;SDS011;3244;42.708;23.288;2023-03-23T00:39:26;37.03;;;22.25;;
6422;SDS011;3244;42.708;23.288;2023-03-23T00:41:54;34.10;;;22.85;;
6422;SDS011;3244;42.708;23.288;2023-03-23T00:44:25;29.20;;;21.25;;
6422;SDS011;3244;42.708;23.288;2023-03-23T00:46:53;34.20;;;22.83;;
6422;SDS011;3244;42.708;23.288;2023-03-23T00:49:21;39.83;;;24.13;;
6422;SDS011;3244;42.708;23.288;2023-03-23T00:51:50;34.80;;;23.75;;
6422;SDS011;3244;42.708;23.288;2023-03-23T00:54:17;31.60;;;22.92;;
6422;SDS011;3244;42.708;23.288;2023-03-23T00:56:46;35.17;;;22.98;;
6422;SDS011;3244;42.708;23.288;2023-03-23T00:59:13;33.53;;;22.80;;
6422;SDS011;3244;42.708;23.288;2023-03-23T01:01:40;39.35;;;26.13;;
6422;SDS011;3244;42.708;23.288;2023-03-23T01:04:07;41.45;;;27.58;;
6422;SDS011;3244;42.708;23.288;2023-03-23T01:06:37;44.72;;;27.05;;
6422;SDS011;3244;42.708;23.288;2023-03-23T01:09:05;46.20;;;27.60;;
6422;SDS011;3244;42.708;23.288;2023-03-23T01:11:33;45.65;;;26.85;;
6422;SDS011;3244;42.708;23.288;2023-03-23T01:14:01;42.88;;;27.70;;
6422;SDS011;3244;42.708;23.288;2023-03-23T01:16:28;40.45;;;27.65;;
6422;SDS011;3244;42.708;23.288;2023-03-23T01:18:55;37.90;;;26.77;;
6422;SDS011;3244;42.708;23.288;2023-03-23T01:21:22;40.90;;;24.40;;
6422;SDS011;3244;42.708;23.288;2023-03-23T01:23:50;40.83;;;24.45;;
6422;SDS011;3244;42.708;23.288;2023-03-23T01:26:17;35.72;;;24.02;;
6422;SDS011;3244;42.708;23.288;2023-03-23T01:28:46;37.45;;;24.77;;
6422;SDS011;3244;42.708;23.288;2023-03-23T01:31:15;38.30;;;25.83;;
6422;SDS011;3244;42.708;23.288;2023-03-23T01:33:43;39.50;;;27.80;;
6422;SDS011;3244;42.708;23.288;2023-03-23T01:36:11;39.60;;;26.48;;
6422;SDS011;3244;42.708;23.288;2023-03-23T01:38:40;40.67;;;27.20;;
6422;SDS011;3244;42.708;23.288;2023-03-23T01:41:08;48.72;;;28.45;;
6422;SDS011;3244;42.708;23.288;2023-03-23T01:43:35;48.25;;;28.60;;
6422;SDS011;3244;42.708;23.288;2023-03-23T01:46:02;47.60;;;29.73;;
6422;SDS011;3244;42.708;23.288;2023-03-23T01:48:31;46.25;;;27.73;;
6422;SDS011;3244;42.708;23.288;2023-03-23T01:51:03;46.08;;;29.15;;
6422;SDS011;3244;42.708;23.288;2023-03-23T01:53:33;45.58;;;28.60;;
6422;SDS011;3244;42.708;23.288;2023-03-23T01:56:03;49.85;;;27.88;;
6422;SDS011;3244;42.708;23.288;2023-03-23T01:58:33;48.38;;;28.38;;
6422;SDS011;3244;42.708;23.288;2023-03-23T02:01:03;46.47;;;28.27;;
6422;SDS011;3244;42.708;23.288;2023-03-23T02:03:34;48.53;;;28.27;;
6422;SDS011;3244;42.708;23.288;2023-03-23T02:06:03;49.70;;;28.35;;
6422;SDS011;3244;42.708;23.288;2023-03-23T02:08:30;49.70;;;29.33;;
6422;SDS011;3244;42.708;23.288;2023-03-23T02:10:59;54.13;;;28.15;;
6422;SDS011;3244;42.708;23.288;2023-03-23T02:13:26;40.50;;;26.17;;
6422;SDS011;3244;42.708;23.288;2023-03-23T02:15:55;46.92;;;29.10;;
6422;SDS011;3244;42.708;23.288;2023-03-23T02:18:38;54.67;;;29.20;;
6422;SDS011;3244;42.708;23.288;2023-03-23T02:21:23;44.72;;;27.88;;
6422;SDS011;3244;42.708;23.288;2023-03-23T02:24:10;43.25;;;26.13;;
6422;SDS011;3244;42.708;23.288;2023-03-23T02:26:59;37.47;;;25.20;;
6422;SDS011;3244;42.708;23.288;2023-03-23T02:32:26;40.47;;;26.75;;
6422;SDS011;3244;42.708;23.288;2023-03-23T02:35:16;39.67;;;25.73;;
6422;SDS011;3244;42.708;23.288;2023-03-23T02:37:46;40.67;;;26.85;;
6422;SDS011;3244;42.708;23.288;2023-03-23T02:40:18;42.75;;;25.65;;
6422;SDS011;3244;42.708;23.288;2023-03-23T02:42:50;38.33;;;25.05;;
6422;SDS011;3244;42.708;23.288;2023-03-23T02:45:20;46.55;;;26.58;;
6422;SDS011;3244;42.708;23.288;2023-03-23T02:47:51;45.30;;;27.05;;
6422;SDS011;3244;42.708;23.288;2023-03-23T02:50:21;44.10;;;27.38;;
6422;SDS011;3244;42.708;23.288;2023-03-23T02:52:51;42.45;;;27.08;;
6422;SDS011;3244;42.708;23.288;2023-03-23T02:55:20;40.63;;;24.55;;
6422;SDS011;3244;42.708;23.288;2023-03-23T02:57:49;43.83;;;26.73;;
6422;SDS011;3244;42.708;23.288;2023-03-23T03:00:18;42.67;;;26.88;;
6422;SDS011;3244;42.708;23.288;2023-03-23T03:02:45;48.33;;;25.20;;
6422;SDS011;3244;42.708;23.288;2023-03-23T03:05:18;39.25;;;25.48;;
6422;SDS011;3244;42.708;23.288;2023-03-23T03:07:59;35.75;;;23.48;;
6422;SDS011;3244;42.708;23.288;2023-03-23T03:10:35;39.95;;;24.58;;
6422;SDS011;3244;42.708;23.288;2023-03-23T03:13:10;38.65;;;22.95;;
6422;SDS011;3244;42.708;23.288;2023-03-23T03:15:42;38.67;;;24.67;;
6422;SDS011;3244;42.708;23.288;2023-03-23T03:18:15;37.35;;;23.63;;
6422;SDS011;3244;42.708;23.288;2023-03-23T03:20:49;38.47;;;23.48;;
6422;SDS011;3244;42.708;23.288;2023-03-23T03:23:19;44.17;;;23.80;;
6422;SDS011;3244;42.708;23.288;2023-03-23T03:25:49;41.03;;;23.30;;
6422;SDS011;3244;42.708;23.288;2023-03-23T03:28:18;40.42;;;24.13;;
6422;SDS011;3244;42.708;23.288;2023-03-23T03:30:47;37.75;;;24.83;;
6422;SDS011;3244;42.708;23.288;2023-03-23T03:33:20;37.55;;;24.05;;
6422;SDS011;3244;42.708;23.288;2023-03-23T03:35:52;37.50;;;23.90;;
6422;SDS011;3244;42.708;23.288;2023-03-23T03:38:20;42.92;;;23.95;;
6422;SDS011;3244;42.708;23.288;2023-03-23T03:40:47;39.33;;;25.45;;
6422;SDS011;3244;42.708;23.288;2023-03-23T03:43:14;36.72;;;24.17;;
6422;SDS011;3244;42.708;23.288;2023-03-23T03:45:41;37.75;;;24.85;;
6422;SDS011;3244;42.708;23.288;2023-03-23T03:48:08;37.85;;;22.58;;
6422;SDS011;3244;42.708;23.288;2023-03-23T03:50:35;40.80;;;24.42;;
6422;SDS011;3244;42.708;23.288;2023-03-23T03:53:03;34.80;;;20.20;;
6422;SDS011;3244;42.708;23.288;2023-03-23T03:55:30;27.17;;;18.35;;
6422;SDS011;3244;42.708;23.288;2023-03-23T03:58:00;34.08;;;22.15;;
6422;SDS011;3244;42.708;23.288;2023-03-23T04:00:27;33.92;;;21.85;;
6422;SDS011;3244;42.708;23.288;2023-03-23T04:02:54;32.05;;;21.83;;
6422;SDS011;3244;42.708;23.288;2023-03-23T04:05:22;36.83;;;23.55;;
6422;SDS011;3244;42.708;23.288;2023-03-23T04:07:50;34.47;;;21.88;;
6422;SDS011;3244;42.708;23.288;2023-03-23T04:10:19;35.22;;;22.20;;
6422;SDS011;3244;42.708;23.288;2023-03-23T04:12:47;33.60;;;21.92;;
6422;SDS011;3244;42.708;23.288;2023-03-23T04:15:14;33.92;;;22.30;;
6422;SDS011;3244;42.708;23.288;2023-03-23T04:17:41;34.63;;;23.02;;
6422;SDS011;3244;42.708;23.288;2023-03-23T04:20:07;40.63;;;24.58;;
6422;SDS011;3244;42.708;23.288;2023-03-23T04:22:40;36.50;;;24.20;;
6422;SDS011;3244;42.708;23.288;2023-03-23T04:25:08;33.47;;;22.00;;
6422;SDS011;3244;42.708;23.288;2023-03-23T04:27:39;34.35;;;23.27;;
6422;SDS011;3244;42.708;23.288;2023-03-23T04:30:08;34.97;;;23.58;;
6422;SDS011;3244;42.708;23.288;2023-03-23T04:32:36;37.80;;;24.15;;
6422;SDS011;3244;42.708;23.288;2023-03-23T04:35:07;36.72;;;24.05;;
6422;SDS011;3244;42.708;23.288;2023-03-23T04:37:34;36.53;;;22.70;;
6422;SDS011;3244;42.708;23.288;2023-03-23T04:40:01;34.22;;;23.05;;
6422;SDS011;3244;42.708;23.288;2023-03-23T04:42:36;37.20;;;24.48;;
6422;SDS011;3244;42.708;23.288;2023-03-23T04:45:06;42.05;;;23.27;;
6422;SDS011;3244;42.708;23.288;2023-03-23T04:47:35;36.33;;;22.80;;
6422;SDS011;3244;42.708;23.288;2023-03-23T04:50:05;34.25;;;22.63;;
6422;SDS011;3244;42.708;23.288;2023-03-23T04:52:33;33.45;;;21.52;;
6422;SDS011;3244;42.708;23.288;2023-03-23T04:55:02;32.28;;;22.55;;
6422;SDS011;3244;42.708;23.288;2023-03-23T04:57:30;37.60;;;24.20;;
6422;SDS011;3244;42.708;23.288;2023-03-23T04:59:59;37.85;;;23.67;;
6422;SDS011;3244;42.708;23.288;2023-03-23T05:02:26;33.47;;;23.23;;
6422;SDS011;3244;42.708;23.288;2023-03-23T05:04:55;36.30;;;23.33;;
6422;SDS011;3244;42.708;23.288;2023-03-23T05:07:22;36.97;;;23.25;;
6422;SDS011;3244;42.708;23.288;2023-03-23T05:09:49;34.17;;;23.00;;
6422;SDS011;3244;42.708;23.288;2023-03-23T05:12:15;35.83;;;22.45;;
6422;SDS011;3244;42.708;23.288;2023-03-23T05:14:42;40.08;;;25.63;;
6422;SDS011;3244;42.708;23.288;2023-03-23T05:17:11;43.67;;;28.63;;
6422;SDS011;3244;42.708;23.288;2023-03-23T05:19:41;42.20;;;26.67;;
6422;SDS011;3244;42.708;23.288;2023-03-23T05:22:08;37.83;;;24.00;;
6422;SDS011;3244;42.708;23.288;2023-03-23T05:24:37;40.42;;;24.08;;
6422;SDS011;3244;42.708;23.288;2023-03-23T05:27:04;40.28;;;24.73;;
6422;SDS011;3244;42.708;23.288;2023-03-23T05:29:33;42.00;;;24.95;;
6422;SDS011;3244;42.708;23.288;2023-03-23T05:32:01;39.17;;;24.90;;
6422;SDS011;3244;42.708;23.288;2023-03-23T05:34:30;38.30;;;24.67;;
6422;SDS011;3244;42.708;23.288;2023-03-23T05:36:58;45.30;;;29.17;;
6422;SDS011;3244;42.708;23.288;2023-03-23T05:39:25;50.00;;;30.73;;
6422;SDS011;3244;42.708;23.288;2023-03-23T05:41:52;40.53;;;27.85;;
6422;SDS011;3244;42.708;23.288;2023-03-23T05:44:19;51.42;;;29.10;;
6422;SDS011;3244;42.708;23.288;2023-03-23T05:46:46;51.88;;;32.45;;
6422;SDS011;3244;42.708;23.288;2023-03-23T05:49:13;43.90;;;29.27;;
6422;SDS011;3244;42.708;23.288;2023-03-23T05:51:42;43.35;;;28.48;;
6422;SDS011;3244;42.708;23.288;2023-03-23T05:54:09;44.47;;;29.13;;
6422;SDS011;3244;42.708;23.288;2023-03-23T05:56:36;40.20;;;27.63;;
6422;SDS011;3244;42.708;23.288;2023-03-23T05:59:02;45.53;;;29.40;;
6422;SDS011;3244;42.708;23.288;2023-03-23T06:01:29;43.13;;;26.65;;
6422;SDS011;3244;42.708;23.288;2023-03-23T06:03:56;37.58;;;26.85;;
6422;SDS011;3244;42.708;23.288;2023-03-23T06:06:23;37.30;;;25.00;;
6422;SDS011;3244;42.708;23.288;2023-03-23T06:08:51;36.30;;;22.90;;
6422;SDS011;3244;42.708;23.288;2023-03-23T06:11:18;37.38;;;24.35;;
6422;SDS011;3244;42.708;23.288;2023-03-23T06:13:45;41.80;;;24.98;;
6422;SDS011;3244;42.708;23.288;2023-03-23T06:16:11;31.92;;;21.77;;
6422;SDS011;3244;42.708;23.288;2023-03-23T06:18:38;34.95;;;22.00;;
6422;SDS011;3244;42.708;23.288;2023-03-23T06:21:06;31.67;;;22.13;;
6422;SDS011;3244;42.708;23.288;2023-03-23T06:23:33;30.15;;;23.65;;
6422;SDS011;3244;42.708;23.288;2023-03-23T06:26:02;29.33;;;21.45;;
6422;SDS011;3244;42.708;23.288;2023-03-23T06:28:32;27.05;;;21.52;;
6422;SDS011;3244;42.708;23.288;2023-03-23T06:30:59;31.15;;;21.35;;
6422;SDS011;3244;42.708;23.288;2023-03-23T06:33:26;30.63;;;22.55;;
6422;SDS011;3244;42.708;23.288;2023-03-23T06:35:53;35.28;;;21.05;;
6422;SDS011;3244;42.708;23.288;2023-03-23T06:38:21;32.13;;;22.40;;
6422;SDS011;3244;42.708;23.288;2023-03-23T06:40:47;31.83;;;22.80;;
6422;SDS011;3244;42.708;23.288;2023-03-23T06:43:15;28.38;;;20.98;;
6422;SDS011;3244;42.708;23.288;2023-03-23T06:45:42;27.15;;;21.73;;
6422;SDS011;3244;42.708;23.288;2023-03-23T06:48:09;23.73;;;19.77;;
6422;SDS011;3244;42.708;23.288;2023-03-23T06:50:35;24.55;;;20.58;;
6422;SDS011;3244;42.708;23.288;2023-03-23T06:53:02;30.17;;;21.88;;
6422;SDS011;3244;42.708;23.288;2023-03-23T06:55:29;22.02;;;19.75;;
6422;SDS011;3244;42.708;23.288;2023-03-23T06:57:56;22.10;;;18.80;;
6422;SDS011;3244;42.708;23.288;2023-03-23T07:00:25;22.15;;;19.85;;
6422;SDS011;3244;42.708;23.288;2023-03-23T07:02:52;23.67;;;18.52;;
6422;SDS011;3244;42.708;23.288;2023-03-23T07:05:19;20.58;;;18.38;;
6422;SDS011;3244;42.708;23.288;2023-03-23T07:07:46;18.40;;;16.60;;
6422;SDS011;3244;42.708;23.288;2023-03-23T07:10:12;19.63;;;17.75;;
6422;SDS011;3244;42.708;23.288;2023-03-23T07:12:40;19.55;;;17.65;;
6422;SDS011;3244;42.708;23.288;2023-03-23T07:15:07;22.35;;;18.83;;
6422;SDS011;3244;42.708;23.288;2023-03-23T07:17:37;21.15;;;18.95;;
6422;SDS011;3244;42.708;23.288;2023-03-23T07:20:05;20.38;;;18.33;;
6422;SDS011;3244;42.708;23.288;2023-03-23T07:22:32;22.83;;;19.73;;
6422;SDS011;3244;42.708;23.288;2023-03-23T07:24:59;22.95;;;20.55;;
6422;SDS011;3244;42.708;23.288;2023-03-23T07:27:26;22.05;;;19.88;;
6422;SDS011;3244;42.708;23.288;2023-03-23T07:29:53;21.33;;;19.30;;
6422;SDS011;3244;42.708;23.288;2023-03-23T07:32:20;22.60;;;19.08;;
6422;SDS011;3244;42.708;23.288;2023-03-23T07:34:48;22.25;;;19.98;;
6422;SDS011;3244;42.708;23.288;2023-03-23T07:37:15;20.48;;;18.48;;
6422;SDS011;3244;42.708;23.288;2023-03-23T07:39:42;22.45;;;19.55;;
6422;SDS011;3244;42.708;23.288;2023-03-23T07:42:09;21.38;;;19.25;;
6422;SDS011;3244;42.708;23.288;2023-03-23T07:44:37;24.35;;;20.05;;
6422;SDS011;3244;42.708;23.288;2023-03-23T07:47:03;24.25;;;21.85;;
6422;SDS011;3244;42.708;23.288;2023-03-23T07:49:30;24.73;;;21.88;;
6422;SDS011;3244;42.708;23.288;2023-03-23T07:51:59;25.17;;;21.02;;
6422;SDS011;3244;42.708;23.288;2023-03-23T07:54:26;22.85;;;20.65;;
6422;SDS011;3244;42.708;23.288;2023-03-23T07:56:53;22.75;;;20.52;;
6422;SDS011;3244;42.708;23.288;2023-03-23T07:59:20;24.83;;;22.20;;
6422;SDS011;3244;42.708;23.288;2023-03-23T08:01:47;22.15;;;19.42;;
6422;SDS011;3244;42.708;23.288;2023-03-23T08:04:13;22.77;;;19.17;;
6422;SDS011;3244;42.708;23.288;2023-03-23T08:06:40;25.77;;;19.20;;
6422;SDS011;3244;42.708;23.288;2023-03-23T08:09:08;17.98;;;16.38;;
6422;SDS011;3244;42.708;23.288;2023-03-23T08:11:37;18.05;;;16.35;;
6422;SDS011;3244;42.708;23.288;2023-03-23T08:14:04;19.00;;;16.60;;
6422;SDS011;3244;42.708;23.288;2023-03-23T08:16:31;17.92;;;16.15;;
6422;SDS011;3244;42.708;23.288;2023-03-23T08:18:58;26.70;;;18.52;;
6422;SDS011;3244;42.708;23.288;2023-03-23T08:21:25;26.17;;;19.23;;
6422;SDS011;3244;42.708;23.288;2023-03-23T08:23:52;24.75;;;17.88;;
6422;SDS011;3244;42.708;23.288;2023-03-23T08:26:21;23.83;;;18.70;;
6422;SDS011;3244;42.708;23.288;2023-03-23T08:28:48;21.08;;;18.45;;
6422;SDS011;3244;42.708;23.288;2023-03-23T08:31:15;19.88;;;17.20;;
6422;SDS011;3244;42.708;23.288;2023-03-23T08:33:42;23.67;;;18.05;;
6422;SDS011;3244;42.708;23.288;2023-03-23T08:36:08;23.17;;;16.77;;
6422;SDS011;3244;42.708;23.288;2023-03-23T08:38:35;16.92;;;15.10;;
6422;SDS011;3244;42.708;23.288;2023-03-23T08:41:03;11.52;;;10.63;;
6422;SDS011;3244;42.708;23.288;2023-03-23T08:43:32;14.40;;;11.57;;
6422;SDS011;3244;42.708;23.288;2023-03-23T08:45:59;13.82;;;12.32;;
6422;SDS011;3244;42.708;23.288;2023-03-23T08:48:26;15.60;;;12.00;;
6422;SDS011;3244;42.708;23.288;2023-03-23T08:50:53;12.73;;;11.40;;
6422;SDS011;3244;42.708;23.288;2023-03-23T08:53:20;9.38;;;8.48;;
6422;SDS011;3244;42.708;23.288;2023-03-23T08:55:46;6.28;;;5.78;;
6422;SDS011;3244;42.708;23.288;2023-03-23T08:58:14;6.43;;;6.03;;
6422;SDS011;3244;42.708;23.288;2023-03-23T09:00:42;7.88;;;7.32;;
6422;SDS011;3244;42.708;23.288;2023-03-23T09:03:09;8.65;;;8.05;;
6422;SDS011;3244;42.708;23.288;2023-03-23T09:05:35;9.38;;;8.57;;
6422;SDS011;3244;42.708;23.288;2023-03-23T09:08:04;11.07;;;8.25;;
6422;SDS011;3244;42.708;23.288;2023-03-23T09:10:31;7.35;;;6.65;;
6422;SDS011;3244;42.708;23.288;2023-03-23T09:12:57;9.23;;;8.48;;
6422;SDS011;3244;42.708;23.288;2023-03-23T09:15:24;14.40;;;9.63;;
6422;SDS011;3244;42.708;23.288;2023-03-23T09:17:53;9.57;;;8.77;;
6422;SDS011;3244;42.708;23.288;2023-03-23T09:20:22;11.85;;;8.73;;
6422;SDS011;3244;42.708;23.288;2023-03-23T09:22:51;8.60;;;7.97;;
6422;SDS011;3244;42.708;23.288;2023-03-23T09:25:20;10.80;;;8.88;;
6422;SDS011;3244;42.708;23.288;2023-03-23T09:27:50;9.50;;;8.32;;
6422;SDS011;3244;42.708;23.288;2023-03-23T09:30:21;11.05;;;9.77;;
6422;SDS011;3244;42.708;23.288;2023-03-23T09:32:50;9.48;;;8.52;;
6422;SDS011;3244;42.708;23.288;2023-03-23T09:35:18;13.05;;;9.35;;
6422;SDS011;3244;42.708;23.288;2023-03-23T09:37:48;9.65;;;8.75;;
6422;SDS011;3244;42.708;23.288;2023-03-23T09:40:17;10.95;;;9.20;;
6422;SDS011;3244;42.708;23.288;2023-03-23T09:42:56;9.38;;;8.15;;
6422;SDS011;3244;42.708;23.288;2023-03-23T09:45:35;10.85;;;8.27;;
6422;SDS011;3244;42.708;23.288;2023-03-23T09:48:14;9.18;;;7.75;;
6422;SDS011;3244;42.708;23.288;2023-03-23T09:50:58;8.65;;;7.95;;
6422;SDS011;3244;42.708;23.288;2023-03-23T09:53:30;25.05;;;8.05;;
6422;SDS011;3244;42.708;23.288;2023-03-23T09:56:03;8.23;;;7.53;;
6422;SDS011;3244;42.708;23.288;2023-03-23T09:58:39;9.35;;;8.55;;
6422;SDS011;3244;42.708;23.288;2023-03-23T10:01:14;8.00;;;7.40;;
6422;SDS011;3244;42.708;23.288;2023-03-23T10:03:43;8.73;;;7.90;;
6422;SDS011;3244;42.708;23.288;2023-03-23T10:06:14;8.60;;;7.68;;
6422;SDS011;3244;42.708;23.288;2023-03-23T10:08:44;9.00;;;8.20;;
6422;SDS011;3244;42.708;23.288;2023-03-23T10:11:12;8.23;;;7.53;;
6422;SDS011;3244;42.708;23.288;2023-03-23T10:13:52;8.73;;;7.90;;
6422;SDS011;3244;42.708;23.288;2023-03-23T10:16:37;7.30;;;6.70;;
6422;SDS011;3244;42.708;23.288;2023-03-23T10:19:10;8.25;;;7.57;;
6422;SDS011;3244;42.708;23.288;2023-03-23T10:21:41;9.80;;;7.32;;
6422;SDS011;3244;42.708;23.288;2023-03-23T10:24:13;10.02;;;6.95;;
6422;SDS011;3244;42.708;23.288;2023-03-23T10:26:44;7.63;;;6.97;;
6422;SDS011;3244;42.708;23.288;2023-03-23T10:29:19;8.07;;;7.30;;
6422;SDS011;3244;42.708;23.288;2023-03-23T10:31:50;8.65;;;7.85;;
6422;SDS011;3244;42.708;23.288;2023-03-23T10:34:22;8.70;;;7.90;;
6422;SDS011;3244;42.708;23.288;2023-03-23T10:37:00;7.60;;;6.85;;
6422;SDS011;3244;42.708;23.288;2023-03-23T10:39:31;8.10;;;7.43;;
6422;SDS011;3244;42.708;23.288;2023-03-23T10:42:05;8.65;;;7.72;;
6422;SDS011;3244;42.708;23.288;2023-03-23T10:44:33;8.95;;;8.07;;
6422;SDS011;3244;42.708;23.288;2023-03-23T10:47:00;11.88;;;8.05;;
6422;SDS011;3244;42.708;23.288;2023-03-23T10:49:30;9.35;;;8.55;;
6422;SDS011;3244;42.708;23.288;2023-03-23T10:52:03;9.48;;;8.05;;
6422;SDS011;3244;42.708;23.288;2023-03-23T10:54:37;12.20;;;8.93;;
6422;SDS011;3244;42.708;23.288;2023-03-23T10:57:12;9.43;;;8.63;;
6422;SDS011;3244;42.708;23.288;2023-03-23T10:59:46;8.85;;;8.05;;
6422;SDS011;3244;42.708;23.288;2023-03-23T11:02:14;10.32;;;8.45;;
6422;SDS011;3244;42.708;23.288;2023-03-23T11:04:45;9.35;;;8.18;;
6422;SDS011;3244;42.708;23.288;2023-03-23T11:07:17;9.05;;;8.15;;
6422;SDS011;3244;42.708;23.288;2023-03-23T11:09:54;7.18;;;6.57;;
6422;SDS011;3244;42.708;23.288;2023-03-23T11:12:23;7.82;;;7.18;;
6422;SDS011;3244;42.708;23.288;2023-03-23T11:14:51;7.30;;;6.78;;
6422;SDS011;3244;42.708;23.288;2023-03-23T11:17:21;7.43;;;6.80;;
6422;SDS011;3244;42.708;23.288;2023-03-23T11:19:50;7.30;;;6.60;;
6422;SDS011;3244;42.708;23.288;2023-03-23T11:22:23;8.60;;;6.82;;
6422;SDS011;3244;42.708;23.288;2023-03-23T11:24:52;7.78;;;7.07;;
6422;SDS011;3244;42.708;23.288;2023-03-23T11:27:21;8.23;;;7.53;;
6422;SDS011;3244;42.708;23.288;2023-03-23T11:29:49;7.78;;;7.03;;
6422;SDS011;3244;42.708;23.288;2023-03-23T11:32:18;7.97;;;7.38;;
6422;SDS011;3244;42.708;23.288;2023-03-23T11:34:53;7.28;;;6.68;;
6422;SDS011;3244;42.708;23.288;2023-03-23T11:37:25;8.25;;;6.85;;
6422;SDS011;3244;42.708;23.288;2023-03-23T11:39:57;7.25;;;6.68;;
6422;SDS011;3244;42.708;23.288;2023-03-23T11:42:26;8.65;;;7.82;;
6422;SDS011;3244;42.708;23.288;2023-03-23T11:45:12;7.88;;;7.18;;
6422;SDS011;3244;42.708;23.288;2023-03-23T11:47:42;7.70;;;6.90;;
6422;SDS011;3244;42.708;23.288;2023-03-23T11:50:15;8.07;;;7.35;;
6422;SDS011;3244;42.708;23.288;2023-03-23T11:52:50;9.00;;;8.30;;
6422;SDS011;3244;42.708;23.288;2023-03-23T11:55:32;7.97;;;7.28;;
6422;SDS011;3244;42.708;23.288;2023-03-23T11:58:07;8.57;;;7.85;;
6422;SDS011;3244;42.708;23.288;2023-03-23T12:00:40;7.70;;;6.88;;
6422;SDS011;3244;42.708;23.288;2023-03-23T12:03:14;7.72;;;7.03;;
6422;SDS011;3244;42.708;23.288;2023-03-23T12:05:44;7.38;;;6.85;;
6422;SDS011;3244;42.708;23.288;2023-03-23T12:08:22;9.40;;;7.15;;
6422;SDS011;3244;42.708;23.288;2023-03-23T12:10:59;6.88;;;6.38;;
6422;SDS011;3244;42.708;23.288;2023-03-23T12:13:42;8.68;;;7.45;;
6422;SDS011;3244;42.708;23.288;2023-03-23T12:16:23;6.95;;;6.45;;
6422;SDS011;3244;42.708;23.288;2023-03-23T12:19:06;6.45;;;5.95;;
6422;SDS011;3244;42.708;23.288;2023-03-23T12:21:42;8.15;;;6.30;;
6422;SDS011;3244;42.708;23.288;2023-03-23T12:24:23;6.97;;;6.43;;
6422;SDS011;3244;42.708;23.288;2023-03-23T12:27:01;5.90;;;5.30;;
6422;SDS011;3244;42.708;23.288;2023-03-23T12:29:38;5.10;;;4.70;;
6422;SDS011;3244;42.708;23.288;2023-03-23T12:32:19;6.43;;;5.68;;
6422;SDS011;3244;42.708;23.288;2023-03-23T12:35:02;5.80;;;5.30;;
6422;SDS011;3244;42.708;23.288;2023-03-23T12:37:43;4.63;;;4.32;;
6422;SDS011;3244;42.708;23.288;2023-03-23T12:40:37;5.97;;;5.57;;
6422;SDS011;3244;42.708;23.288;2023-03-23T12:43:15;6.97;;;6.00;;
6422;SDS011;3244;42.708;23.288;2023-03-23T12:45:55;5.72;;;5.32;;
6422;SDS011;3244;42.708;23.288;2023-03-23T12:48:29;7.95;;;5.75;;
6422;SDS011;3244;42.708;23.288;2023-03-23T12:51:06;6.68;;;6.18;;
6422;SDS011;3244;42.708;23.288;2023-03-23T12:53:40;6.57;;;5.97;;
6422;SDS011;3244;42.708;23.288;2023-03-23T12:56:16;6.15;;;5.25;;
6422;SDS011;3244;42.708;23.288;2023-03-23T12:58:47;5.50;;;5.03;;
6422;SDS011;3244;42.708;23.288;2023-03-23T13:01:20;5.82;;;5.43;;
6422;SDS011;3244;42.708;23.288;2023-03-23T13:03:52;5.50;;;5.10;;
6422;SDS011;3244;42.708;23.288;2023-03-23T13:06:24;5.70;;;5.40;;
6422;SDS011;3244;42.708;23.288;2023-03-23T13:08:56;5.82;;;5.32;;
6422;SDS011;3244;42.708;23.288;2023-03-23T13:11:28;5.43;;;5.03;;
6422;SDS011;3244;42.708;23.288;2023-03-23T13:14:00;6.45;;;6.05;;
6422;SDS011;3244;42.708;23.288;2023-03-23T13:16:37;6.47;;;5.88;;
6422;SDS011;3244;42.708;23.288;2023-03-23T13:19:12;6.75;;;6.15;;
6422;SDS011;3244;42.708;23.288;2023-03-23T13:21:46;7.20;;;5.57;;
6422;SDS011;3244;42.708;23.288;2023-03-23T13:24:23;5.88;;;5.57;;
6422;SDS011;3244;42.708;23.288;2023-03-23T13:26:54;5.78;;;5.38;;
6422;SDS011;3244;42.708;23.288;2023-03-23T13:29:23;4.75;;;4.40;;
6422;SDS011;3244;42.708;23.288;2023-03-23T13:31:52;5.65;;;5.15;;
6422;SDS011;3244;42.708;23.288;2023-03-23T13:34:31;6.05;;;5.53;;
6422;SDS011;3244;42.708;23.288;2023-03-23T13:36:59;5.35;;;4.97;;
6422;SDS011;3244;42.708;23.288;2023-03-23T13:39:29;6.13;;;5.63;;
6422;SDS011;3244;42.708;23.288;2023-03-23T13:42:01;5.63;;;5.18;;
6422;SDS011;3244;42.708;23.288;2023-03-23T13:44:41;6.18;;;5.57;;
6422;SDS011;3244;42.708;23.288;2023-03-23T13:47:16;6.82;;;6.07;;
6422;SDS011;3244;42.708;23.288;2023-03-23T13:49:54;6.93;;;6.38;;
6422;SDS011;3244;42.708;23.288;2023-03-23T13:52:23;6.13;;;5.70;;
6422;SDS011;3244;42.708;23.288;2023-03-23T13:58:09;5.57;;;5.15;;
6422;SDS011;3244;42.708;23.288;2023-03-23T14:00:47;5.80;;;5.30;;
6422;SDS011;3244;42.708;23.288;2023-03-23T14:03:17;6.35;;;5.85;;
6422;SDS011;3244;42.708;23.288;2023-03-23T14:05:51;5.90;;;5.38;;
6422;SDS011;3244;42.708;23.288;2023-03-23T14:08:37;6.22;;;5.72;;
6422;SDS011;3244;42.708;23.288;2023-03-23T14:11:14;6.50;;;6.00;;
6422;SDS011;3244;42.708;23.288;2023-03-23T14:13:46;6.85;;;6.28;;
6422;SDS011;3244;42.708;23.288;2023-03-23T14:16:19;5.68;;;5.18;;
6422;SDS011;3244;42.708;23.288;2023-03-23T14:18:48;6.47;;;5.88;;
6422;SDS011;3244;42.708;23.288;2023-03-23T14:21:31;6.15;;;5.55;;
6422;SDS011;3244;42.708;23.288;2023-03-23T14:24:01;5.53;;;5.07;;
6422;SDS011;3244;42.708;23.288;2023-03-23T14:26:29;6.55;;;5.97;;
6422;SDS011;3244;42.708;23.288;2023-03-23T14:29:02;6.00;;;5.60;;
6422;SDS011;3244;42.708;23.288;2023-03-23T14:31:30;5.07;;;4.78;;
6422;SDS011;3244;42.708;23.288;2023-03-23T14:34:01;5.70;;;5.22;;
6422;SDS011;3244;42.708;23.288;2023-03-23T14:36:31;5.65;;;5.35;;
6422;SDS011;3244;42.708;23.288;2023-03-23T14:39:02;6.82;;;6.10;;
6422;SDS011;3244;42.708;23.288;2023-03-23T14:41:34;5.90;;;5.40;;
6422;SDS011;3244;42.708;23.288;2023-03-23T14:44:05;6.03;;;5.03;;
6422;SDS011;3244;42.708;23.288;2023-03-23T14:46:34;6.03;;;5.45;;
6422;SDS011;3244;42.708;23.288;2023-03-23T14:49:02;6.88;;;5.38;;
6422;SDS011;3244;42.708;23.288;2023-03-23T14:51:30;6.47;;;5.97;;
6422;SDS011;3244;42.708;23.288;2023-03-23T14:53:58;6.72;;;6.15;;
6422;SDS011;3244;42.708;23.288;2023-03-23T14:56:31;8.02;;;7.30;;
6422;SDS011;3244;42.708;23.288;2023-03-23T14:59:02;7.28;;;5.82;;
6422;SDS011;3244;42.708;23.288;2023-03-23T15:01:33;6.93;;;5.40;;
6422;SDS011;3244;42.708;23.288;2023-03-23T15:04:04;6.38;;;5.88;;
6422;SDS011;3244;42.708;23.288;2023-03-23T15:06:35;5.40;;;5.00;;
6422;SDS011;3244;42.708;23.288;2023-03-23T15:09:05;6.20;;;5.65;;
6422;SDS011;3244;42.708;23.288;2023-03-23T15:11:36;6.45;;;5.78;;